Ault, Kentucky
Current Conditions -  °F | °C
As of 11:50 AM on Saturday 22 Nov 2014 (Local Time) from KSYM Reporting Station
Broken Clouds Broken Clouds  
Wind Chill: 59°   Ceiling: 10000
Heat Index: 59°   Visibility: 10mi
Dew Point: 28°   Wind: 20mph
Humidity: 31%   Direction: 210°SSW
Pressure: 30.31"   Gusts: NA
Location:  38.3543°N, 83.1837°W
Report Text: KSYM 221650Z AUTO 21017KT 10SM BKN100 15/M02 A3031 RMK AO2
Loading
Personal Weather Stations






























Interactive Weather Map New forecast layout! Learn more

10-Day Weather Forecast

Advertisements
Track Severe Weather on mobile